sensor_id;sensor_type;location;lat;lon;timestamp;P1;durP1;ratioP1;P2;durP2;ratioP2
45059;SDS011;30799;49.060;9.312;2023-04-03T00:01:50;1.88;;;1.30;;
45059;SDS011;30799;49.060;9.312;2023-04-03T00:04:17;1.85;;;0.98;;
45059;SDS011;30799;49.060;9.312;2023-04-03T00:06:44;2.63;;;1.17;;
45059;SDS011;30799;49.060;9.312;2023-04-03T00:09:11;1.20;;;1.00;;
45059;SDS011;30799;49.060;9.312;2023-04-03T00:11:38;1.80;;;1.10;;
45059;SDS011;30799;49.060;9.312;2023-04-03T00:14:05;1.75;;;1.20;;
45059;SDS011;30799;49.060;9.312;2023-04-03T00:16:31;1.95;;;1.10;;
45059;SDS011;30799;49.060;9.312;2023-04-03T00:18:58;1.52;;;1.00;;
45059;SDS011;30799;49.060;9.312;2023-04-03T00:21:25;2.22;;;1.15;;
45059;SDS011;30799;49.060;9.312;2023-04-03T00:23:52;1.17;;;1.05;;
45059;SDS011;30799;49.060;9.312;2023-04-03T00:26:18;1.20;;;1.10;;
45059;SDS011;30799;49.060;9.312;2023-04-03T00:28:46;1.63;;;1.40;;
45059;SDS011;30799;49.060;9.312;2023-04-03T00:31:16;1.30;;;1.17;;
45059;SDS011;30799;49.060;9.312;2023-04-03T00:33:43;1.42;;;1.10;;
45059;SDS011;30799;49.060;9.312;2023-04-03T00:36:10;1.83;;;1.20;;
45059;SDS011;30799;49.060;9.312;2023-04-03T00:38:37;2.05;;;1.00;;
45059;SDS011;30799;49.060;9.312;2023-04-03T00:41:04;1.20;;;0.70;;
45059;SDS011;30799;49.060;9.312;2023-04-03T00:43:31;1.27;;;0.90;;
45059;SDS011;30799;49.060;9.312;2023-04-03T00:45:58;1.63;;;1.02;;
45059;SDS011;30799;49.060;9.312;2023-04-03T00:48:27;1.25;;;1.10;;
45059;SDS011;30799;49.060;9.312;2023-04-03T00:50:57;1.33;;;1.15;;
45059;SDS011;30799;49.060;9.312;2023-04-03T00:53:26;1.38;;;1.20;;
45059;SDS011;30799;49.060;9.312;2023-04-03T00:55:57;2.50;;;1.10;;
45059;SDS011;30799;49.060;9.312;2023-04-03T00:58:27;1.38;;;1.15;;
45059;SDS011;30799;49.060;9.312;2023-04-03T01:00:59;1.23;;;1.00;;
45059;SDS011;30799;49.060;9.312;2023-04-03T01:03:31;2.25;;;0.98;;
45059;SDS011;30799;49.060;9.312;2023-04-03T01:05:58;0.98;;;0.80;;
45059;SDS011;30799;49.060;9.312;2023-04-03T01:08:25;0.98;;;0.90;;
45059;SDS011;30799;49.060;9.312;2023-04-03T01:10:52;1.27;;;1.05;;
45059;SDS011;30799;49.060;9.312;2023-04-03T01:13:23;2.58;;;1.20;;
45059;SDS011;30799;49.060;9.312;2023-04-03T01:15:55;1.17;;;1.08;;
45059;SDS011;30799;49.060;9.312;2023-04-03T01:18:22;1.65;;;0.80;;
45059;SDS011;30799;49.060;9.312;2023-04-03T01:23:53;0.95;;;0.82;;
45059;SDS011;30799;49.060;9.312;2023-04-03T01:26:34;1.85;;;1.05;;
45059;SDS011;30799;49.060;9.312;2023-04-03T01:29:01;1.77;;;1.20;;
45059;SDS011;30799;49.060;9.312;2023-04-03T01:34:02;1.48;;;0.95;;
45059;SDS011;30799;49.060;9.312;2023-04-03T01:36:29;1.30;;;1.00;;
45059;SDS011;30799;49.060;9.312;2023-04-03T01:38:58;2.20;;;1.00;;
45059;SDS011;30799;49.060;9.312;2023-04-03T01:41:25;0.98;;;0.82;;
45059;SDS011;30799;49.060;9.312;2023-04-03T01:43:53;1.20;;;1.05;;
45059;SDS011;30799;49.060;9.312;2023-04-03T01:46:19;1.23;;;1.13;;
45059;SDS011;30799;49.060;9.312;2023-04-03T01:48:47;0.98;;;0.90;;
45059;SDS011;30799;49.060;9.312;2023-04-03T01:51:14;1.02;;;0.98;;
45059;SDS011;30799;49.060;9.312;2023-04-03T01:53:40;1.33;;;0.75;;
45059;SDS011;30799;49.060;9.312;2023-04-03T01:56:07;1.40;;;1.30;;
45059;SDS011;30799;49.060;9.312;2023-04-03T01:58:35;2.90;;;0.95;;
45059;SDS011;30799;49.060;9.312;2023-04-03T02:01:02;1.10;;;0.75;;
45059;SDS011;30799;49.060;9.312;2023-04-03T02:03:28;1.38;;;0.80;;
45059;SDS011;30799;49.060;9.312;2023-04-03T02:05:55;1.23;;;0.90;;
45059;SDS011;30799;49.060;9.312;2023-04-03T02:08:22;1.20;;;1.00;;
45059;SDS011;30799;49.060;9.312;2023-04-03T02:10:49;1.48;;;1.00;;
45059;SDS011;30799;49.060;9.312;2023-04-03T02:13:16;0.98;;;0.70;;
45059;SDS011;30799;49.060;9.312;2023-04-03T02:15:43;0.77;;;0.77;;
45059;SDS011;30799;49.060;9.312;2023-04-03T02:18:11;1.05;;;0.90;;
45059;SDS011;30799;49.060;9.312;2023-04-03T02:20:38;1.33;;;1.05;;
45059;SDS011;30799;49.060;9.312;2023-04-03T02:23:05;0.95;;;0.90;;
45059;SDS011;30799;49.060;9.312;2023-04-03T02:25:32;0.70;;;0.70;;
45059;SDS011;30799;49.060;9.312;2023-04-03T02:28:00;1.10;;;0.90;;
45059;SDS011;30799;49.060;9.312;2023-04-03T02:30:27;1.83;;;0.88;;
45059;SDS011;30799;49.060;9.312;2023-04-03T02:32:54;1.27;;;1.00;;
45059;SDS011;30799;49.060;9.312;2023-04-03T02:35:21;0.77;;;0.77;;
45059;SDS011;30799;49.060;9.312;2023-04-03T02:37:48;1.23;;;0.80;;
45059;SDS011;30799;49.060;9.312;2023-04-03T02:40:14;1.23;;;0.80;;
45059;SDS011;30799;49.060;9.312;2023-04-03T02:42:41;0.95;;;0.85;;
45059;SDS011;30799;49.060;9.312;2023-04-03T02:45:08;0.95;;;0.90;;
45059;SDS011;30799;49.060;9.312;2023-04-03T02:47:35;1.00;;;0.90;;
45059;SDS011;30799;49.060;9.312;2023-04-03T02:50:02;0.68;;;0.68;;
45059;SDS011;30799;49.060;9.312;2023-04-03T02:52:28;1.63;;;1.02;;
45059;SDS011;30799;49.060;9.312;2023-04-03T02:54:55;1.10;;;1.00;;
45059;SDS011;30799;49.060;9.312;2023-04-03T02:57:22;1.17;;;0.88;;
45059;SDS011;30799;49.060;9.312;2023-04-03T02:59:49;0.73;;;0.73;;
45059;SDS011;30799;49.060;9.312;2023-04-03T03:02:15;1.10;;;1.00;;
45059;SDS011;30799;49.060;9.312;2023-04-03T03:04:42;1.23;;;1.00;;
45059;SDS011;30799;49.060;9.312;2023-04-03T03:07:09;0.80;;;0.80;;
45059;SDS011;30799;49.060;9.312;2023-04-03T03:09:36;1.25;;;1.08;;
45059;SDS011;30799;49.060;9.312;2023-04-03T03:12:02;0.68;;;0.68;;
45059;SDS011;30799;49.060;9.312;2023-04-03T03:14:29;1.27;;;0.80;;
45059;SDS011;30799;49.060;9.312;2023-04-03T03:16:56;0.70;;;0.70;;
45059;SDS011;30799;49.060;9.312;2023-04-03T03:19:22;3.67;;;0.80;;
45059;SDS011;30799;49.060;9.312;2023-04-03T03:21:49;1.83;;;0.90;;
45059;SDS011;30799;49.060;9.312;2023-04-03T03:24:16;1.10;;;1.00;;
45059;SDS011;30799;49.060;9.312;2023-04-03T03:26:42;1.30;;;0.98;;
45059;SDS011;30799;49.060;9.312;2023-04-03T03:29:09;0.85;;;0.70;;
45059;SDS011;30799;49.060;9.312;2023-04-03T03:31:36;1.42;;;0.93;;
45059;SDS011;30799;49.060;9.312;2023-04-03T03:34:03;0.80;;;0.65;;
45059;SDS011;30799;49.060;9.312;2023-04-03T03:36:29;0.80;;;0.73;;
45059;SDS011;30799;49.060;9.312;2023-04-03T03:38:56;1.25;;;0.88;;
45059;SDS011;30799;49.060;9.312;2023-04-03T03:41:23;0.90;;;0.90;;
45059;SDS011;30799;49.060;9.312;2023-04-03T03:43:49;0.85;;;0.77;;
45059;SDS011;30799;49.060;9.312;2023-04-03T03:46:16;0.95;;;0.80;;
45059;SDS011;30799;49.060;9.312;2023-04-03T03:48:43;0.85;;;0.80;;
45059;SDS011;30799;49.060;9.312;2023-04-03T03:51:10;1.10;;;0.95;;
45059;SDS011;30799;49.060;9.312;2023-04-03T03:53:37;0.70;;;0.70;;
45059;SDS011;30799;49.060;9.312;2023-04-03T03:56:04;0.75;;;0.75;;
45059;SDS011;30799;49.060;9.312;2023-04-03T03:58:31;1.05;;;0.95;;
45059;SDS011;30799;49.060;9.312;2023-04-03T04:01:05;0.80;;;0.80;;
45059;SDS011;30799;49.060;9.312;2023-04-03T04:03:32;0.70;;;0.70;;
45059;SDS011;30799;49.060;9.312;2023-04-03T04:05:59;0.93;;;0.75;;
45059;SDS011;30799;49.060;9.312;2023-04-03T04:08:26;1.52;;;0.80;;
45059;SDS011;30799;49.060;9.312;2023-04-03T04:10:52;1.17;;;0.90;;
45059;SDS011;30799;49.060;9.312;2023-04-03T04:13:19;1.15;;;1.05;;
45059;SDS011;30799;49.060;9.312;2023-04-03T04:15:46;0.73;;;0.73;;
45059;SDS011;30799;49.060;9.312;2023-04-03T04:18:12;0.80;;;0.80;;
45059;SDS011;30799;49.060;9.312;2023-04-03T04:20:39;0.70;;;0.70;;
45059;SDS011;30799;49.060;9.312;2023-04-03T04:23:06;0.65;;;0.65;;
45059;SDS011;30799;49.060;9.312;2023-04-03T04:25:32;0.77;;;0.70;;
45059;SDS011;30799;49.060;9.312;2023-04-03T04:27:59;0.80;;;0.80;;
45059;SDS011;30799;49.060;9.312;2023-04-03T04:30:26;0.60;;;0.60;;
45059;SDS011;30799;49.060;9.312;2023-04-03T04:32:53;1.00;;;1.00;;
45059;SDS011;30799;49.060;9.312;2023-04-03T04:35:20;1.15;;;0.80;;
45059;SDS011;30799;49.060;9.312;2023-04-03T04:37:47;0.80;;;0.80;;
45059;SDS011;30799;49.060;9.312;2023-04-03T04:40:13;0.63;;;0.63;;
45059;SDS011;30799;49.060;9.312;2023-04-03T04:42:40;0.70;;;0.70;;
45059;SDS011;30799;49.060;9.312;2023-04-03T04:45:07;0.68;;;0.68;;
45059;SDS011;30799;49.060;9.312;2023-04-03T04:47:34;0.60;;;0.60;;
45059;SDS011;30799;49.060;9.312;2023-04-03T04:50:00;0.80;;;0.80;;
45059;SDS011;30799;49.060;9.312;2023-04-03T04:52:27;1.02;;;0.93;;
45059;SDS011;30799;49.060;9.312;2023-04-03T04:54:54;2.83;;;1.30;;
45059;SDS011;30799;49.060;9.312;2023-04-03T05:02:14;4.45;;;1.90;;
45059;SDS011;30799;49.060;9.312;2023-04-03T05:04:40;1.92;;;1.63;;
45059;SDS011;30799;49.060;9.312;2023-04-03T05:07:07;2.38;;;1.85;;
45059;SDS011;30799;49.060;9.312;2023-04-03T05:09:34;2.75;;;2.30;;
45059;SDS011;30799;49.060;9.312;2023-04-03T05:12:01;3.72;;;2.28;;
45059;SDS011;30799;49.060;9.312;2023-04-03T05:14:29;1.90;;;1.70;;
45059;SDS011;30799;49.060;9.312;2023-04-03T05:16:56;3.78;;;1.85;;
45059;SDS011;30799;49.060;9.312;2023-04-03T05:19:23;2.90;;;1.80;;
45059;SDS011;30799;49.060;9.312;2023-04-03T05:21:50;2.15;;;1.50;;
45059;SDS011;30799;49.060;9.312;2023-04-03T05:24:17;3.97;;;1.58;;
45059;SDS011;30799;49.060;9.312;2023-04-03T05:26:43;2.22;;;1.48;;
45059;SDS011;30799;49.060;9.312;2023-04-03T05:29:10;1.95;;;1.48;;
45059;SDS011;30799;49.060;9.312;2023-04-03T05:31:37;2.53;;;1.40;;
45059;SDS011;30799;49.060;9.312;2023-04-03T05:34:04;2.72;;;1.30;;
45059;SDS011;30799;49.060;9.312;2023-04-03T05:36:30;11.35;;;1.88;;
45059;SDS011;30799;49.060;9.312;2023-04-03T05:38:57;5.40;;;1.58;;
45059;SDS011;30799;49.060;9.312;2023-04-03T05:41:24;7.25;;;1.67;;
45059;SDS011;30799;49.060;9.312;2023-04-03T05:43:51;8.77;;;1.60;;
45059;SDS011;30799;49.060;9.312;2023-04-03T05:46:18;4.15;;;1.75;;
45059;SDS011;30799;49.060;9.312;2023-04-03T05:48:46;3.40;;;1.60;;
45059;SDS011;30799;49.060;9.312;2023-04-03T05:51:33;9.75;;;1.75;;
45059;SDS011;30799;49.060;9.312;2023-04-03T05:54:06;9.25;;;2.00;;
45059;SDS011;30799;49.060;9.312;2023-04-03T05:57:08;7.13;;;1.65;;
45059;SDS011;30799;49.060;9.312;2023-04-03T05:59:34;8.80;;;1.48;;
45059;SDS011;30799;49.060;9.312;2023-04-03T06:02:01;2.08;;;1.40;;
45059;SDS011;30799;49.060;9.312;2023-04-03T06:04:29;4.05;;;1.52;;
45059;SDS011;30799;49.060;9.312;2023-04-03T06:06:56;4.55;;;1.40;;
45059;SDS011;30799;49.060;9.312;2023-04-03T06:09:25;5.95;;;1.20;;
45059;SDS011;30799;49.060;9.312;2023-04-03T06:11:53;2.80;;;1.60;;
45059;SDS011;30799;49.060;9.312;2023-04-03T06:14:19;1.35;;;1.00;;
45059;SDS011;30799;49.060;9.312;2023-04-03T06:16:46;3.15;;;1.38;;
45059;SDS011;30799;49.060;9.312;2023-04-03T06:19:13;2.28;;;1.10;;
45059;SDS011;30799;49.060;9.312;2023-04-03T06:21:39;2.40;;;1.42;;
45059;SDS011;30799;49.060;9.312;2023-04-03T06:24:06;3.72;;;1.70;;
45059;SDS011;30799;49.060;9.312;2023-04-03T06:26:33;3.15;;;1.15;;
45059;SDS011;30799;49.060;9.312;2023-04-03T06:29:00;4.50;;;1.42;;
45059;SDS011;30799;49.060;9.312;2023-04-03T06:31:28;4.30;;;1.35;;
45059;SDS011;30799;49.060;9.312;2023-04-03T06:33:55;2.20;;;1.30;;
45059;SDS011;30799;49.060;9.312;2023-04-03T06:36:22;1.92;;;1.20;;
45059;SDS011;30799;49.060;9.312;2023-04-03T06:38:49;2.00;;;1.60;;
45059;SDS011;30799;49.060;9.312;2023-04-03T06:41:15;2.75;;;1.17;;
45059;SDS011;30799;49.060;9.312;2023-04-03T06:43:43;2.67;;;1.52;;
45059;SDS011;30799;49.060;9.312;2023-04-03T06:46:17;5.05;;;1.33;;
45059;SDS011;30799;49.060;9.312;2023-04-03T06:48:45;2.08;;;1.13;;
45059;SDS011;30799;49.060;9.312;2023-04-03T06:51:25;3.22;;;1.45;;
45059;SDS011;30799;49.060;9.312;2023-04-03T06:53:54;1.87;;;1.10;;
45059;SDS011;30799;49.060;9.312;2023-04-03T06:56:23;2.60;;;1.45;;
45059;SDS011;30799;49.060;9.312;2023-04-03T06:58:51;2.78;;;1.60;;
45059;SDS011;30799;49.060;9.312;2023-04-03T07:01:20;1.95;;;1.02;;
45059;SDS011;30799;49.060;9.312;2023-04-03T07:03:47;1.55;;;1.27;;
45059;SDS011;30799;49.060;9.312;2023-04-03T07:06:15;1.70;;;1.40;;
45059;SDS011;30799;49.060;9.312;2023-04-03T07:08:43;1.40;;;1.00;;
45059;SDS011;30799;49.060;9.312;2023-04-03T07:11:10;1.33;;;1.10;;
45059;SDS011;30799;49.060;9.312;2023-04-03T07:13:39;3.35;;;1.45;;
45059;SDS011;30799;49.060;9.312;2023-04-03T07:16:06;2.90;;;1.17;;
45059;SDS011;30799;49.060;9.312;2023-04-03T07:18:33;1.30;;;1.13;;
45059;SDS011;30799;49.060;9.312;2023-04-03T07:21:00;2.97;;;1.50;;
45059;SDS011;30799;49.060;9.312;2023-04-03T07:23:27;2.42;;;1.17;;
45059;SDS011;30799;49.060;9.312;2023-04-03T07:25:54;2.10;;;1.42;;
45059;SDS011;30799;49.060;9.312;2023-04-03T07:28:21;2.90;;;1.13;;
45059;SDS011;30799;49.060;9.312;2023-04-03T07:30:50;2.35;;;1.25;;
45059;SDS011;30799;49.060;9.312;2023-04-03T07:33:28;1.65;;;1.30;;
45059;SDS011;30799;49.060;9.312;2023-04-03T07:35:55;2.67;;;1.50;;
45059;SDS011;30799;49.060;9.312;2023-04-03T07:38:22;1.70;;;1.25;;
45059;SDS011;30799;49.060;9.312;2023-04-03T07:40:49;2.33;;;1.15;;
45059;SDS011;30799;49.060;9.312;2023-04-03T07:43:17;1.65;;;1.20;;
45059;SDS011;30799;49.060;9.312;2023-04-03T07:45:44;2.08;;;1.25;;
45059;SDS011;30799;49.060;9.312;2023-04-03T07:48:11;1.27;;;1.00;;
45059;SDS011;30799;49.060;9.312;2023-04-03T07:50:42;1.65;;;0.90;;
45059;SDS011;30799;49.060;9.312;2023-04-03T07:53:09;1.75;;;1.05;;
45059;SDS011;30799;49.060;9.312;2023-04-03T07:55:36;1.30;;;1.20;;
45059;SDS011;30799;49.060;9.312;2023-04-03T07:58:09;2.10;;;1.15;;
45059;SDS011;30799;49.060;9.312;2023-04-03T08:00:37;1.02;;;0.95;;
45059;SDS011;30799;49.060;9.312;2023-04-03T08:03:05;3.13;;;1.20;;
45059;SDS011;30799;49.060;9.312;2023-04-03T08:05:39;1.63;;;1.10;;
45059;SDS011;30799;49.060;9.312;2023-04-03T08:08:07;1.55;;;0.90;;
45059;SDS011;30799;49.060;9.312;2023-04-03T08:10:35;0.95;;;0.82;;
45059;SDS011;30799;49.060;9.312;2023-04-03T08:13:02;1.13;;;1.02;;
45059;SDS011;30799;49.060;9.312;2023-04-03T08:15:29;1.30;;;0.93;;
45059;SDS011;30799;49.060;9.312;2023-04-03T08:17:57;1.35;;;1.00;;
45059;SDS011;30799;49.060;9.312;2023-04-03T08:20:24;2.00;;;1.20;;
45059;SDS011;30799;49.060;9.312;2023-04-03T08:22:51;2.15;;;1.10;;
45059;SDS011;30799;49.060;9.312;2023-04-03T08:25:18;1.33;;;0.80;;
45059;SDS011;30799;49.060;9.312;2023-04-03T08:27:45;2.53;;;1.58;;
45059;SDS011;30799;49.060;9.312;2023-04-03T08:30:12;1.23;;;0.90;;
45059;SDS011;30799;49.060;9.312;2023-04-03T08:32:39;1.70;;;1.10;;
45059;SDS011;30799;49.060;9.312;2023-04-03T08:35:08;2.45;;;1.10;;
45059;SDS011;30799;49.060;9.312;2023-04-03T08:37:36;1.58;;;1.30;;
45059;SDS011;30799;49.060;9.312;2023-04-03T08:40:04;3.03;;;1.05;;
45059;SDS011;30799;49.060;9.312;2023-04-03T08:47:56;2.70;;;1.10;;
45059;SDS011;30799;49.060;9.312;2023-04-03T08:50:53;1.85;;;0.88;;
45059;SDS011;30799;49.060;9.312;2023-04-03T08:53:27;1.42;;;1.10;;
45059;SDS011;30799;49.060;9.312;2023-04-03T08:55:58;3.63;;;1.58;;
45059;SDS011;30799;49.060;9.312;2023-04-03T08:58:29;1.70;;;1.10;;
45059;SDS011;30799;49.060;9.312;2023-04-03T09:01:06;1.80;;;1.10;;
45059;SDS011;30799;49.060;9.312;2023-04-03T09:03:47;1.13;;;0.98;;
45059;SDS011;30799;49.060;9.312;2023-04-03T09:06:15;0.95;;;0.93;;
45059;SDS011;30799;49.060;9.312;2023-04-03T09:11:46;1.65;;;1.00;;
45059;SDS011;30799;49.060;9.312;2023-04-03T09:15:02;1.42;;;1.00;;
45059;SDS011;30799;49.060;9.312;2023-04-03T09:22:45;1.00;;;0.88;;
45059;SDS011;30799;49.060;9.312;2023-04-03T09:27:49;2.15;;;0.90;;
45059;SDS011;30799;49.060;9.312;2023-04-03T09:30:18;1.67;;;1.00;;
45059;SDS011;30799;49.060;9.312;2023-04-03T09:32:48;1.10;;;1.00;;
45059;SDS011;30799;49.060;9.312;2023-04-03T09:38:22;1.73;;;1.00;;
45059;SDS011;30799;49.060;9.312;2023-04-03T09:40:50;1.92;;;1.15;;
45059;SDS011;30799;49.060;9.312;2023-04-03T09:43:30;0.80;;;0.80;;
45059;SDS011;30799;49.060;9.312;2023-04-03T09:49:00;1.42;;;1.10;;
45059;SDS011;30799;49.060;9.312;2023-04-03T09:51:32;2.28;;;1.50;;
45059;SDS011;30799;49.060;9.312;2023-04-03T09:53:58;2.08;;;1.00;;
45059;SDS011;30799;49.060;9.312;2023-04-03T09:56:26;1.75;;;1.02;;
45059;SDS011;30799;49.060;9.312;2023-04-03T10:04:07;2.13;;;1.13;;
45059;SDS011;30799;49.060;9.312;2023-04-03T10:06:40;1.20;;;1.00;;
45059;SDS011;30799;49.060;9.312;2023-04-03T10:12:06;1.73;;;1.10;;
45059;SDS011;30799;49.060;9.312;2023-04-03T10:14:37;1.40;;;0.82;;
45059;SDS011;30799;49.060;9.312;2023-04-03T10:17:33;1.02;;;0.90;;
45059;SDS011;30799;49.060;9.312;2023-04-03T10:20:05;2.00;;;0.98;;
45059;SDS011;30799;49.060;9.312;2023-04-03T10:22:56;2.13;;;1.00;;
45059;SDS011;30799;49.060;9.312;2023-04-03T10:25:47;1.92;;;1.10;;
45059;SDS011;30799;49.060;9.312;2023-04-03T10:28:35;1.08;;;0.80;;
45059;SDS011;30799;49.060;9.312;2023-04-03T10:31:14;1.88;;;1.02;;
45059;SDS011;30799;49.060;9.312;2023-04-03T10:36:54;1.05;;;0.95;;
45059;SDS011;30799;49.060;9.312;2023-04-03T10:39:40;1.05;;;0.98;;
45059;SDS011;30799;49.060;9.312;2023-04-03T10:42:27;1.00;;;0.82;;
45059;SDS011;30799;49.060;9.312;2023-04-03T10:48:00;0.73;;;0.73;;
45059;SDS011;30799;49.060;9.312;2023-04-03T10:53:24;0.90;;;0.90;;
45059;SDS011;30799;49.060;9.312;2023-04-03T10:58:43;0.90;;;0.88;;
45059;SDS011;30799;49.060;9.312;2023-04-03T11:03:54;1.05;;;0.80;;
45059;SDS011;30799;49.060;9.312;2023-04-03T11:06:24;0.82;;;0.82;;
45059;SDS011;30799;49.060;9.312;2023-04-03T11:08:57;1.40;;;1.05;;
45059;SDS011;30799;49.060;9.312;2023-04-03T11:11:34;1.17;;;0.82;;
45059;SDS011;30799;49.060;9.312;2023-04-03T11:20:06;1.27;;;0.90;;
45059;SDS011;30799;49.060;9.312;2023-04-03T11:22:51;1.05;;;0.70;;
45059;SDS011;30799;49.060;9.312;2023-04-03T11:25:25;0.80;;;0.80;;
45059;SDS011;30799;49.060;9.312;2023-04-03T11:27:56;1.70;;;0.90;;
45059;SDS011;30799;49.060;9.312;2023-04-03T11:30:27;0.90;;;0.90;;
45059;SDS011;30799;49.060;9.312;2023-04-03T11:33:02;1.25;;;1.15;;
45059;SDS011;30799;49.060;9.312;2023-04-03T11:37:59;1.45;;;0.90;;
45059;SDS011;30799;49.060;9.312;2023-04-03T11:40:29;1.67;;;0.88;;
45059;SDS011;30799;49.060;9.312;2023-04-03T11:50:50;1.38;;;1.25;;
45059;SDS011;30799;49.060;9.312;2023-04-03T11:55:58;2.20;;;1.10;;
45059;SDS011;30799;49.060;9.312;2023-04-03T12:01:04;1.55;;;0.85;;
45059;SDS011;30799;49.060;9.312;2023-04-03T12:11:32;0.80;;;0.80;;
45059;SDS011;30799;49.060;9.312;2023-04-03T12:16:25;1.60;;;1.10;;
45059;SDS011;30799;49.060;9.312;2023-04-03T12:22:12;1.45;;;1.23;;
45059;SDS011;30799;49.060;9.312;2023-04-03T12:24:42;1.50;;;1.20;;
45059;SDS011;30799;49.060;9.312;2023-04-03T12:27:24;1.27;;;1.02;;
45059;SDS011;30799;49.060;9.312;2023-04-03T12:32:49;1.20;;;1.10;;
45059;SDS011;30799;49.060;9.312;2023-04-03T12:41:25;1.10;;;0.90;;
45059;SDS011;30799;49.060;9.312;2023-04-03T12:46:44;1.63;;;1.13;;
45059;SDS011;30799;49.060;9.312;2023-04-03T12:49:33;1.20;;;0.90;;
45059;SDS011;30799;49.060;9.312;2023-04-03T12:52:05;1.27;;;0.90;;
45059;SDS011;30799;49.060;9.312;2023-04-03T12:54:43;0.80;;;0.80;;
45059;SDS011;30799;49.060;9.312;2023-04-03T12:57:19;1.42;;;1.00;;
45059;SDS011;30799;49.060;9.312;2023-04-03T12:59:49;1.55;;;1.10;;
45059;SDS011;30799;49.060;9.312;2023-04-03T13:02:19;0.85;;;0.85;;
45059;SDS011;30799;49.060;9.312;2023-04-03T13:04:53;0.80;;;0.80;;
45059;SDS011;30799;49.060;9.312;2023-04-03T13:07:25;0.80;;;0.68;;
45059;SDS011;30799;49.060;9.312;2023-04-03T13:09:57;1.48;;;1.02;;
45059;SDS011;30799;49.060;9.312;2023-04-03T13:17:53;1.30;;;1.00;;
45059;SDS011;30799;49.060;9.312;2023-04-03T13:20:25;0.82;;;0.82;;
45059;SDS011;30799;49.060;9.312;2023-04-03T13:25:28;1.08;;;1.00;;
45059;SDS011;30799;49.060;9.312;2023-04-03T13:27:57;1.25;;;1.02;;
45059;SDS011;30799;49.060;9.312;2023-04-03T13:30:38;0.85;;;0.80;;
45059;SDS011;30799;49.060;9.312;2023-04-03T13:33:19;0.98;;;0.98;;
45059;SDS011;30799;49.060;9.312;2023-04-03T13:35:48;1.25;;;1.15;;
45059;SDS011;30799;49.060;9.312;2023-04-03T13:38:28;1.65;;;1.08;;
45059;SDS011;30799;49.060;9.312;2023-04-03T13:41:01;0.93;;;0.82;;
45059;SDS011;30799;49.060;9.312;2023-04-03T13:43:32;1.00;;;0.90;;
45059;SDS011;30799;49.060;9.312;2023-04-03T13:48:41;1.23;;;0.80;;
45059;SDS011;30799;49.060;9.312;2023-04-03T13:56:30;1.08;;;0.90;;
45059;SDS011;30799;49.060;9.312;2023-04-03T14:06:44;0.70;;;0.63;;
45059;SDS011;30799;49.060;9.312;2023-04-03T14:09:12;1.13;;;1.02;;
45059;SDS011;30799;49.060;9.312;2023-04-03T14:11:40;1.88;;;1.00;;
45059;SDS011;30799;49.060;9.312;2023-04-03T14:14:15;1.38;;;0.88;;
45059;SDS011;30799;49.060;9.312;2023-04-03T14:16:46;1.17;;;1.08;;
45059;SDS011;30799;49.060;9.312;2023-04-03T14:19:23;0.98;;;0.90;;
45059;SDS011;30799;49.060;9.312;2023-04-03T14:21:54;1.00;;;0.90;;
45059;SDS011;30799;49.060;9.312;2023-04-03T14:24:22;0.75;;;0.75;;
45059;SDS011;30799;49.060;9.312;2023-04-03T14:26:50;1.15;;;0.90;;
45059;SDS011;30799;49.060;9.312;2023-04-03T14:29:19;1.10;;;1.00;;
45059;SDS011;30799;49.060;9.312;2023-04-03T14:31:46;1.13;;;1.02;;
45059;SDS011;30799;49.060;9.312;2023-04-03T14:36:45;1.15;;;1.05;;
45059;SDS011;30799;49.060;9.312;2023-04-03T14:39:16;1.73;;;0.80;;
45059;SDS011;30799;49.060;9.312;2023-04-03T14:41:44;0.98;;;0.95;;
45059;SDS011;30799;49.060;9.312;2023-04-03T14:44:11;1.20;;;1.10;;
45059;SDS011;30799;49.060;9.312;2023-04-03T14:46:39;1.30;;;1.20;;
45059;SDS011;30799;49.060;9.312;2023-04-03T14:49:24;0.90;;;0.90;;
45059;SDS011;30799;49.060;9.312;2023-04-03T14:51:53;0.93;;;0.90;;
45059;SDS011;30799;49.060;9.312;2023-04-03T14:54:21;0.73;;;0.73;;
45059;SDS011;30799;49.060;9.312;2023-04-03T14:56:53;0.98;;;0.90;;
45059;SDS011;30799;49.060;9.312;2023-04-03T14:59:21;1.30;;;0.90;;
45059;SDS011;30799;49.060;9.312;2023-04-03T15:01:48;1.20;;;0.80;;
45059;SDS011;30799;49.060;9.312;2023-04-03T15:04:19;1.00;;;0.90;;
45059;SDS011;30799;49.060;9.312;2023-04-03T15:06:47;1.02;;;0.90;;
45059;SDS011;30799;49.060;9.312;2023-04-03T15:09:22;1.08;;;0.70;;
45059;SDS011;30799;49.060;9.312;2023-04-03T15:11:53;0.93;;;0.80;;
45059;SDS011;30799;49.060;9.312;2023-04-03T15:14:20;1.08;;;0.90;;
45059;SDS011;30799;49.060;9.312;2023-04-03T15:17:03;0.90;;;0.90;;
45059;SDS011;30799;49.060;9.312;2023-04-03T15:19:40;0.90;;;0.90;;
45059;SDS011;30799;49.060;9.312;2023-04-03T15:22:08;1.25;;;0.90;;
45059;SDS011;30799;49.060;9.312;2023-04-03T15:24:39;0.98;;;0.88;;
45059;SDS011;30799;49.060;9.312;2023-04-03T15:27:06;1.00;;;0.88;;
45059;SDS011;30799;49.060;9.312;2023-04-03T15:29:32;0.80;;;0.80;;
45059;SDS011;30799;49.060;9.312;2023-04-03T15:31:59;1.48;;;0.98;;
45059;SDS011;30799;49.060;9.312;2023-04-03T15:34:27;1.23;;;0.68;;
45059;SDS011;30799;49.060;9.312;2023-04-03T15:36:54;0.73;;;0.73;;
45059;SDS011;30799;49.060;9.312;2023-04-03T15:39:21;1.60;;;1.30;;
45059;SDS011;30799;49.060;9.312;2023-04-03T15:41:49;1.95;;;1.38;;
45059;SDS011;30799;49.060;9.312;2023-04-03T15:44:17;2.85;;;1.90;;
45059;SDS011;30799;49.060;9.312;2023-04-03T15:46:45;3.75;;;2.17;;
45059;SDS011;30799;49.060;9.312;2023-04-03T15:49:13;2.95;;;1.50;;
45059;SDS011;30799;49.060;9.312;2023-04-03T15:51:39;5.30;;;1.80;;
45059;SDS011;30799;49.060;9.312;2023-04-03T15:54:07;3.38;;;1.60;;
45059;SDS011;30799;49.060;9.312;2023-04-03T15:56:33;3.35;;;1.25;;
45059;SDS011;30799;49.060;9.312;2023-04-03T15:59:00;3.08;;;1.42;;
45059;SDS011;30799;49.060;9.312;2023-04-03T16:01:27;5.18;;;1.55;;
45059;SDS011;30799;49.060;9.312;2023-04-03T16:03:54;1.48;;;1.38;;
45059;SDS011;30799;49.060;9.312;2023-04-03T16:06:21;2.55;;;1.40;;
45059;SDS011;30799;49.060;9.312;2023-04-03T16:08:48;2.83;;;1.30;;
45059;SDS011;30799;49.060;9.312;2023-04-03T16:11:15;2.85;;;1.45;;
45059;SDS011;30799;49.060;9.312;2023-04-03T16:13:42;2.47;;;1.38;;
45059;SDS011;30799;49.060;9.312;2023-04-03T16:16:09;3.80;;;1.98;;
45059;SDS011;30799;49.060;9.312;2023-04-03T16:18:36;3.75;;;1.90;;
45059;SDS011;30799;49.060;9.312;2023-04-03T16:21:03;4.15;;;1.70;;
45059;SDS011;30799;49.060;9.312;2023-04-03T16:23:31;3.80;;;2.20;;
45059;SDS011;30799;49.060;9.312;2023-04-03T16:25:58;3.13;;;1.50;;
45059;SDS011;30799;49.060;9.312;2023-04-03T16:28:25;6.32;;;1.70;;
45059;SDS011;30799;49.060;9.312;2023-04-03T16:30:52;3.25;;;1.50;;
45059;SDS011;30799;49.060;9.312;2023-04-03T16:33:19;1.83;;;1.20;;
45059;SDS011;30799;49.060;9.312;2023-04-03T16:35:48;3.97;;;1.38;;
45059;SDS011;30799;49.060;9.312;2023-04-03T16:38:15;2.60;;;1.55;;
45059;SDS011;30799;49.060;9.312;2023-04-03T16:40:42;5.68;;;1.48;;
45059;SDS011;30799;49.060;9.312;2023-04-03T16:43:09;5.43;;;1.30;;
45059;SDS011;30799;49.060;9.312;2023-04-03T16:45:36;4.60;;;1.40;;
45059;SDS011;30799;49.060;9.312;2023-04-03T16:48:04;2.78;;;1.63;;
45059;SDS011;30799;49.060;9.312;2023-04-03T16:50:31;4.80;;;1.45;;
45059;SDS011;30799;49.060;9.312;2023-04-03T16:52:58;7.40;;;1.55;;
45059;SDS011;30799;49.060;9.312;2023-04-03T16:55:25;2.60;;;1.65;;
45059;SDS011;30799;49.060;9.312;2023-04-03T16:57:52;3.70;;;1.17;;
45059;SDS011;30799;49.060;9.312;2023-04-03T17:00:20;3.83;;;1.35;;
45059;SDS011;30799;49.060;9.312;2023-04-03T17:02:47;3.17;;;1.20;;
45059;SDS011;30799;49.060;9.312;2023-04-03T17:05:14;1.33;;;1.10;;
45059;SDS011;30799;49.060;9.312;2023-04-03T17:07:41;3.63;;;1.63;;
45059;SDS011;30799;49.060;9.312;2023-04-03T17:10:08;2.72;;;1.10;;